createdAt,value
2017-05-01T00:00:20.866Z,42.60
2017-05-01T00:02:55.228Z,43.40
2017-05-01T00:05:29.912Z,43.00
2017-05-01T00:08:03.618Z,42.90
2017-05-01T00:10:38.104Z,42.60
2017-05-01T00:13:12.699Z,43.30
2017-05-01T00:15:46.672Z,43.20
2017-05-01T00:18:20.332Z,43.50
2017-05-01T00:20:54.077Z,44.80
2017-05-01T00:23:28.562Z,43.40
2017-05-01T00:26:03.804Z,44.10
2017-05-01T00:28:37.493Z,44.00
2017-05-01T00:31:12.017Z,43.80
2017-05-01T00:33:46.513Z,43.50
2017-05-01T00:36:20.409Z,43.40
2017-05-01T00:38:54.954Z,44.00
2017-05-01T00:41:28.580Z,43.50
2017-05-01T00:44:03.015Z,43.50
2017-05-01T00:46:36.746Z,43.60
2017-05-01T00:49:12.047Z,43.30
2017-05-01T00:51:46.700Z,43.50
2017-05-01T00:54:20.470Z,43.60
2017-05-01T00:56:55.812Z,43.20
2017-05-01T00:59:29.533Z,43.20
2017-05-01T01:02:05.088Z,43.00
2017-05-01T01:04:38.696Z,43.00
2017-05-01T01:07:12.374Z,42.90
2017-05-01T01:09:53.208Z,43.10
2017-05-01T01:12:28.401Z,46.90
2017-05-01T01:15:02.178Z,46.40
2017-05-01T01:17:36.729Z,42.90
2017-05-01T01:20:11.134Z,43.30
2017-05-01T01:22:45.742Z,43.20
2017-05-01T01:25:20.287Z,44.00
2017-05-01T01:27:53.940Z,45.40
2017-05-01T01:30:28.484Z,43.40
2017-05-01T01:33:03.093Z,44.20
2017-05-01T01:35:38.455Z,43.90
2017-05-01T01:38:12.341Z,43.80
2017-05-01T01:40:47.593Z,45.40
2017-05-01T01:43:21.541Z,45.10
2017-05-01T01:45:56.764Z,44.10
2017-05-01T01:48:31.566Z,44.20
2017-05-01T01:51:06.057Z,47.30
2017-05-01T01:53:40.001Z,47.50
2017-05-01T01:56:15.154Z,43.90
2017-05-01T01:58:49.020Z,43.70
2017-05-01T02:01:24.397Z,44.00
2017-05-01T02:03:58.361Z,43.80
2017-05-01T02:06:32.008Z,44.00
2017-05-01T02:09:05.858Z,44.50
2017-05-01T02:11:41.270Z,44.10
2017-05-01T02:14:16.026Z,44.40
2017-05-01T02:16:50.531Z,44.40
2017-05-01T02:19:24.474Z,44.40
2017-05-01T02:21:58.119Z,45.20
2017-05-01T02:24:31.832Z,45.10
2017-05-01T02:27:07.068Z,45.30
2017-05-01T02:29:42.875Z,45.20
2017-05-01T02:32:16.528Z,45.00
2017-05-01T02:34:50.185Z,44.70
2017-05-01T02:37:24.450Z,44.70
2017-05-01T02:39:59.142Z,45.20
2017-05-01T02:42:33.584Z,45.10
2017-05-01T02:45:08.412Z,45.60
2017-05-01T02:47:43.426Z,47.70
2017-05-01T02:50:18.032Z,45.80
2017-05-01T02:52:51.881Z,45.70
2017-05-01T02:55:25.509Z,46.10
2017-05-01T02:58:00.064Z,44.90
2017-05-01T03:00:35.706Z,45.60
2017-05-01T03:03:09.477Z,45.60
2017-05-01T03:05:44.066Z,47.10
2017-05-01T03:08:17.979Z,47.00
2017-05-01T03:10:52.561Z,46.30
2017-05-01T03:13:26.194Z,45.80
2017-05-01T03:15:59.860Z,46.10
2017-05-01T03:18:35.035Z,46.10
2017-05-01T03:21:09.701Z,46.80
2017-05-01T03:23:44.210Z,47.00
2017-05-01T03:26:18.728Z,46.10
2017-05-01T03:28:53.975Z,46.20
2017-05-01T03:31:29.725Z,46.20
2017-05-01T03:34:03.473Z,46.30
2017-05-01T03:36:38.077Z,46.50
2017-05-01T03:39:12.601Z,47.50
2017-05-01T03:41:47.065Z,48.40
2017-05-01T03:44:20.777Z,49.10
2017-05-01T03:46:56.162Z,47.70
2017-05-01T03:49:29.892Z,47.70
2017-05-01T03:52:04.312Z,48.70
2017-05-01T03:54:39.597Z,48.00
2017-05-01T03:57:14.482Z,49.10
2017-05-01T03:59:48.117Z,48.40
2017-05-01T04:02:22.594Z,47.30
2017-05-01T04:04:57.139Z,47.70
2017-05-01T04:07:31.777Z,48.30
2017-05-01T04:10:05.526Z,48.20
2017-05-01T04:12:40.130Z,48.60
2017-05-01T04:15:15.476Z,48.10
2017-05-01T04:17:49.398Z,48.10
2017-05-01T04:20:24.606Z,48.70
2017-05-01T04:22:59.212Z,49.50
2017-05-01T04:25:32.922Z,49.30
2017-05-01T04:28:06.596Z,49.00
2017-05-01T04:30:41.159Z,49.50
2017-05-01T04:33:17.641Z,49.70
2017-05-01T04:35:51.393Z,49.70
2017-05-01T04:38:26.041Z,50.50
2017-05-01T04:41:00.573Z,49.40
2017-05-01T04:43:34.214Z,49.50
2017-05-01T04:46:08.616Z,49.70
2017-05-01T04:48:42.385Z,49.70
2017-05-01T04:51:17.667Z,51.10
2017-05-01T04:53:52.225Z,50.70
2017-05-01T04:56:26.033Z,50.30
2017-05-01T04:58:59.664Z,49.70
2017-05-01T05:01:33.333Z,50.00
2017-05-01T05:04:07.039Z,51.30
2017-05-01T05:06:41.561Z,50.70
2017-05-01T05:09:15.312Z,52.50
2017-05-01T05:11:50.514Z,51.20
2017-05-01T05:14:24.502Z,51.20
2017-05-01T05:17:00.536Z,51.30
2017-05-01T05:19:35.500Z,51.80
2017-05-01T05:22:09.209Z,51.10
2017-05-01T05:24:44.561Z,50.30
2017-05-01T05:27:19.137Z,50.30
2017-05-01T05:29:54.677Z,50.20
2017-05-01T05:32:28.405Z,50.20
2017-05-01T05:35:03.832Z,49.30
2017-05-01T05:37:37.549Z,49.30
2017-05-01T05:40:11.180Z,49.10
2017-05-01T05:42:45.741Z,50.30
2017-05-01T05:45:20.403Z,49.60
2017-05-01T05:47:54.972Z,47.50
2017-05-01T05:50:30.278Z,48.60
2017-05-01T05:53:04.001Z,48.60
2017-05-01T05:55:37.811Z,48.90
2017-05-01T05:58:12.198Z,47.00
2017-05-01T06:00:47.661Z,48.10
2017-05-01T06:03:21.441Z,48.20
2017-05-01T06:05:55.945Z,45.90
2017-05-01T06:08:30.449Z,45.70
2017-05-01T06:11:04.840Z,46.20
2017-05-01T06:13:38.676Z,46.10
2017-05-01T06:16:13.239Z,45.50
2017-05-01T06:18:48.582Z,45.50
2017-05-01T06:21:23.252Z,45.30
2017-05-01T06:23:57.085Z,45.20
2017-05-01T06:26:30.785Z,45.20
2017-05-01T06:29:05.321Z,44.00
2017-05-01T06:31:39.741Z,44.70
2017-05-01T06:34:13.697Z,44.60
2017-05-01T06:36:47.394Z,44.20
2017-05-01T06:39:21.886Z,44.50
2017-05-01T06:41:57.267Z,45.40
2017-05-01T06:44:31.757Z,45.70
2017-05-01T06:47:05.735Z,45.60
2017-05-01T06:49:41.005Z,44.40
2017-05-01T06:52:14.988Z,44.40
2017-05-01T06:54:49.604Z,44.40
2017-05-01T06:57:24.029Z,45.30
2017-05-01T06:59:58.038Z,45.30
2017-05-01T07:02:31.686Z,43.50
2017-05-01T07:05:06.167Z,44.30
2017-05-01T07:07:40.156Z,44.30
2017-05-01T07:10:14.724Z,44.40
2017-05-01T07:12:49.195Z,42.80
2017-05-01T07:15:23.673Z,42.70
2017-05-01T07:17:57.669Z,42.60
2017-05-01T07:20:32.927Z,41.80
2017-05-01T07:23:07.581Z,41.50
2017-05-01T07:25:41.495Z,41.50
2017-05-01T07:28:15.394Z,42.10
2017-05-01T07:30:49.119Z,40.60
2017-05-01T07:33:23.546Z,41.30
2017-05-01T07:35:57.345Z,41.30
2017-05-01T07:38:32.679Z,40.40
2017-05-01T07:41:06.385Z,40.30
2017-05-01T07:43:40.897Z,40.50
2017-05-01T07:46:15.380Z,41.10
2017-05-01T07:48:49.406Z,41.00
